Time;durP1;ratioP1;P1;durP2;ratioP2;P2;SDS_P1;SDS_P2;PMS_P1;PMS_P2;Temp;Humidity;BMP_temperature;BMP_pressure;BME280_temperature;BME280_humidity;BME280_pressure;Samples;Min_cycle;Max_cycle;Signal;HPM_P1;HPM_P2
2022/03/07 00:00:36;;;;;;;14.8;10.2;;;;;;;0.41;59.68848;938.9512;;;;
2022/03/07 00:03:10;;;;;;;16.1;10.9;;;;;;;0.19;60.01367;938.8747;;;;
2022/03/07 00:05:47;;;;;;;15;10.8;;;;;;;0.24;60.06445;938.8918;;;;
2022/03/07 00:08:15;;;;;;;15.7;10.7;;;;;;;0.05;60.68359;938.9454;;;;
2022/03/07 00:11:04;;;;;;;15.2;10.7;;;;;;;-0.11;60.80469;938.9386;;;;
2022/03/07 00:13:48;;;;;;;17.3;10.3;;;;;;;-0.04;60.43652;938.9439;;;;
2022/03/07 00:16:26;;;;;;;14.3;9.9;;;;;;;-0.26;60.97363;938.9302;;;;
2022/03/07 00:19:09;;;;;;;14.7;10.1;;;;;;;-0.14;60.68945;938.9035;;;;
2022/03/07 00:21:58;;;;;;;14.3;10.4;;;;;;;-0.28;61.11426;938.9258;;;;
2022/03/07 00:24:36;;;;;;;17.9;11.3;;;;;;;-0.16;60.54102;939.0027;;;;
2022/03/07 00:27:13;;;;;;;14.7;10.5;;;;;;;-0.36;61.19238;939.0161;;;;
2022/03/07 00:29:40;;;;;;;16.5;11.1;;;;;;;-0.62;62.02246;938.9615;;;;
2022/03/07 00:32:07;;;;;;;14.8;10.5;;;;;;;-0.5;61.83984;938.8921;;;;
2022/03/07 00:34:42;;;;;;;16.1;10.7;;;;;;;-0.31;61.11035;938.9771;;;;
2022/03/07 00:37:28;;;;;;;17.3;10.8;;;;;;;-0.3;61.30078;938.9992;;;;
2022/03/07 00:40:14;;;;;;;17.5;10.7;;;;;;;-0.17;61.10938;938.9937;;;;
2022/03/07 00:42:49;;;;;;;13.8;10.2;;;;;;;-0.36;61.36914;939.0009;;;;
2022/03/07 00:45:23;;;;;;;15.7;10.7;;;;;;;-0.29;61.58008;938.9562;;;;
2022/03/07 00:48:05;;;;;;;15;10.5;;;;;;;-0.3;61.34668;938.9479;;;;
2022/03/07 00:50:44;;;;;;;14.4;10.8;;;;;;;-0.4;61.54395;938.8973;;;;
2022/03/07 00:53:09;;;;;;;15.8;10.2;;;;;;;-0.48;61.79785;938.9139;;;;
2022/03/07 00:55:35;;;;;;;16.1;10.5;;;;;;;-0.42;61.67285;938.9163;;;;
2022/03/07 00:58:06;;;;;;;14.9;10.5;;;;;;;-0.34;61.08301;938.9261;;;;
2022/03/07 01:00:31;;;;;;;15.4;10.3;;;;;;;-0.33;61.25195;938.9204;;;;
2022/03/07 01:03:03;;;;;;;15.3;10.3;;;;;;;-0.2;60.7373;938.8766;;;;
2022/03/07 01:05:33;;;;;;;15.1;10.9;;;;;;;-0.21;60.65723;938.8811;;;;
2022/03/07 01:07:58;;;;;;;14.6;10.8;;;;;;;-0.22;60.7793;938.8697;;;;
2022/03/07 01:10:28;;;;;;;15.1;10.6;;;;;;;-0.34;62.9082;938.765;;;;
2022/03/07 01:13:00;;;;;;;15.8;10.8;;;;;;;-0.42;63.23145;938.8859;;;;
2022/03/07 01:15:42;;;;;;;15.5;11.3;;;;;;;-0.45;63.31641;938.8867;;;;
2022/03/07 01:18:10;;;;;;;16.2;11;;;;;;;-0.49;63.86621;938.9133;;;;
2022/03/07 01:20:36;;;;;;;15.5;11.3;;;;;;;-0.45;63.66113;938.8422;;;;
2022/03/07 01:23:06;;;;;;;16.7;11.1;;;;;;;-0.44;63.26074;938.8931;;;;
2022/03/07 01:25:33;;;;;;;15.6;11.1;;;;;;;-0.49;63.32031;938.9246;;;;
2022/03/07 01:27:58;;;;;;;17.9;12;;;;;;;-0.44;63.02734;938.8572;;;;
2022/03/07 01:30:31;;;;;;;17;11.7;;;;;;;-0.47;63.25781;938.8514;;;;
2022/03/07 01:32:57;;;;;;;16.6;11.3;;;;;;;-0.53;63.57227;938.817;;;;
2022/03/07 01:35:27;;;;;;;17.6;11.8;;;;;;;-0.61;63.19141;938.8155;;;;
2022/03/07 01:37:55;;;;;;;16.9;11.5;;;;;;;-0.58;63.39551;938.8383;;;;
2022/03/07 01:40:20;;;;;;;18.5;11.5;;;;;;;-0.59;62.90527;938.8333;;;;
2022/03/07 01:42:49;;;;;;;15.3;11.1;;;;;;;-0.61;63.16895;938.8141;;;;
2022/03/07 01:45:20;;;;;;;17.4;11.1;;;;;;;-0.54;62.7002;938.835;;;;
2022/03/07 01:47:47;;;;;;;17.7;12.3;;;;;;;-0.54;62.7002;938.8053;;;;
2022/03/07 01:50:54;;;;;;;16.9;11.5;;;;;;;-0.54;62.55762;938.851;;;;
2022/03/07 01:53:22;;;;;;;18;11.9;;;;;;;-0.53;62.66895;938.8394;;;;
2022/03/07 01:55:47;;;;;;;15.5;11.3;;;;;;;-0.54;62.62305;938.8231;;;;
2022/03/07 01:58:16;;;;;;;15.6;10.7;;;;;;;-0.54;62.22363;938.7547;;;;
2022/03/07 02:00:41;;;;;;;15.6;10.8;;;;;;;-0.51;61.87305;938.8713;;;;
2022/03/07 02:03:19;;;;;;;17.1;11.6;;;;;;;-0.56;62.97754;938.8505;;;;
2022/03/07 02:05:52;;;;;;;16.1;11.4;;;;;;;-0.61;63.08203;938.79;;;;
2022/03/07 02:08:17;;;;;;;15.2;11;;;;;;;-1.17;64.875;938.8858;;;;
2022/03/07 02:12:04;;;;;;;17.5;11.8;;;;;;;-0.97;63.9375;938.8035;;;;
2022/03/07 02:14:28;;;;;;;16.5;11.5;;;;;;;-1.03;64.12793;938.8206;;;;
2022/03/07 02:16:53;;;;;;;20.4;12.6;;;;;;;-1.18;65.33789;938.8466;;;;
2022/03/07 02:19:18;;;;;;;17.6;12.5;;;;;;;-1.13;65.79004;938.804;;;;
2022/03/07 02:21:43;;;;;;;18.4;12.4;;;;;;;-1.14;65.93457;938.8077;;;;
2022/03/07 02:24:08;;;;;;;19.8;13;;;;;;;-1.18;66.4043;938.834;;;;
2022/03/07 02:26:33;;;;;;;17.5;12.6;;;;;;;-1.26;66.27051;938.8359;;;;
2022/03/07 02:28:58;;;;;;;18.9;12.6;;;;;;;-1.32;66.51758;938.836;;;;
2022/03/07 02:31:29;;;;;;;20.7;13.1;;;;;;;-1.44;67.67383;938.8019;;;;
2022/03/07 02:33:57;;;;;;;19.6;12.3;;;;;;;-1.5;68.4873;938.7018;;;;
2022/03/07 02:36:24;;;;;;;18;12.4;;;;;;;-1.39;68.39355;938.8412;;;;
2022/03/07 02:39:21;;;;;;;18.5;11.9;;;;;;;-1.47;68.75586;938.7553;;;;
2022/03/07 02:41:48;;;;;;;16;11.5;;;;;;;-1.59;68.43848;938.7773;;;;
2022/03/07 02:44:14;;;;;;;19.9;12.4;;;;;;;-1.62;68.97656;938.7448;;;;
2022/03/07 02:46:42;;;;;;;19.5;12.8;;;;;;;-1.69;68.59863;938.7102;;;;
2022/03/07 02:49:09;;;;;;;19.9;12.8;;;;;;;-1.71;68.95117;938.775;;;;
2022/03/07 02:51:34;;;;;;;20.5;12.8;;;;;;;-1.6;68.19141;938.7925;;;;
2022/03/07 02:54:02;;;;;;;19.8;12.4;;;;;;;-1.82;68.18945;938.7635;;;;
2022/03/07 02:56:27;;;;;;;21.8;12.8;;;;;;;-1.8;68.30371;938.8239;;;;
2022/03/07 02:58:56;;;;;;;21.7;13.4;;;;;;;-1.72;67.31836;938.7665;;;;
2022/03/07 03:01:30;;;;;;;19.4;12.8;;;;;;;-1.69;68.02148;938.7308;;;;
2022/03/07 03:04:00;;;;;;;18.6;13;;;;;;;-1.75;68.11328;938.7424;;;;
2022/03/07 03:06:25;;;;;;;16.8;11.8;;;;;;;-1.62;67.85547;938.7488;;;;
2022/03/07 03:08:54;;;;;;;18.2;12.3;;;;;;;-1.49;67.76563;938.7198;;;;
2022/03/07 03:11:19;;;;;;;21.4;12;;;;;;;-1.34;67.25684;938.7791;;;;
2022/03/07 03:13:50;;;;;;;19;12.9;;;;;;;-1.23;66.95215;938.7117;;;;
2022/03/07 03:16:19;;;;;;;18.6;12.4;;;;;;;-1.26;67.20313;938.8234;;;;
2022/03/07 03:18:46;;;;;;;18.6;12.3;;;;;;;-1.29;67.87695;938.7486;;;;
2022/03/07 03:21:11;;;;;;;21.2;12.5;;;;;;;-1.26;67.23633;938.8197;;;;
2022/03/07 03:23:44;;;;;;;19.5;12.6;;;;;;;-1.33;66.61328;938.8562;;;;
2022/03/07 03:26:14;;;;;;;19.2;12.6;;;;;;;-1.37;66.6416;938.9551;;;;
2022/03/07 03:28:39;;;;;;;18.7;12.8;;;;;;;-1.27;67.24512;938.9719;;;;
2022/03/07 03:31:06;;;;;;;20.8;13.3;;;;;;;-1.24;67.08594;938.966;;;;
2022/03/07 03:33:30;;;;;;;18.3;12.2;;;;;;;-1.24;68.08496;938.9645;;;;
2022/03/07 03:35:56;;;;;;;18.6;13.1;;;;;;;-1.25;68.98145;938.9011;;;;
2022/03/07 03:38:23;;;;;;;19.4;12.9;;;;;;;-1.34;69.40039;938.9849;;;;
2022/03/07 03:40:48;;;;;;;20.2;13.2;;;;;;;-1.4;70.02441;938.9512;;;;
2022/03/07 03:43:13;;;;;;;19.3;13;;;;;;;-1.43;69.62793;938.9652;;;;
2022/03/07 03:46:32;;;;;;;18.4;12.6;;;;;;;-1.52;70.26953;939.0549;;;;
2022/03/07 03:49:01;;;;;;;21.2;13.3;;;;;;;-1.41;69.04395;938.9539;;;;
2022/03/07 03:51:29;;;;;;;19.4;12.7;;;;;;;-1.22;67.02148;939.0117;;;;
2022/03/07 03:53:54;;;;;;;18.9;13;;;;;;;-1.11;66.53906;939.0112;;;;
2022/03/07 03:56:25;;;;;;;19.9;13;;;;;;;-1.07;66.50195;939.0413;;;;
2022/03/07 03:58:56;;;;;;;18.4;12.2;;;;;;;-0.96;65.68359;939.0728;;;;
2022/03/07 04:09:25;;;;;;;19.6;12.7;;;;;;;-0.93;65.48926;939.1448;;;;
2022/03/07 04:11:54;;;;;;;18.4;12.3;;;;;;;-0.85;64.77832;939.0793;;;;
2022/03/07 04:14:19;;;;;;;20.7;12.6;;;;;;;-1.04;66.01563;939.158;;;;
2022/03/07 04:16:54;;;;;;;17.4;11.7;;;;;;;-0.95;65.68555;939.1197;;;;
2022/03/07 04:19:19;;;;;;;18.9;12.5;;;;;;;-0.81;65.45313;939.11;;;;
2022/03/07 04:21:44;;;;;;;17.5;12;;;;;;;-0.75;65.16016;939.0694;;;;
2022/03/07 04:24:09;;;;;;;18.1;12.6;;;;;;;-0.85;65.86719;939.0941;;;;
2022/03/07 04:26:36;;;;;;;17.4;11.7;;;;;;;-0.76;65.06055;939.0808;;;;
2022/03/07 04:30:12;;;;;;;17.7;12.3;;;;;;;-0.62;64.44629;939.0895;;;;
2022/03/07 04:32:38;;;;;;;17.4;12.4;;;;;;;-0.64;64.31055;939.0909;;;;
2022/03/07 04:35:04;;;;;;;17.8;12.3;;;;;;;-0.59;63.81738;939.0939;;;;
2022/03/07 04:37:33;;;;;;;17.8;11.9;;;;;;;-0.53;63.73633;939.0317;;;;
2022/03/07 04:39:58;;;;;;;17.3;11.4;;;;;;;-0.56;63.68945;939.0851;;;;
2022/03/07 04:42:27;;;;;;;16.5;11.4;;;;;;;-0.86;64.12109;939.053;;;;
2022/03/07 04:48:01;;;;;;;18.8;11.8;;;;;;;-1.12;64.48145;939.1289;;;;
2022/03/07 04:50:32;;;;;;;18.7;11.9;;;;;;;-1.3;65.15332;939.0571;;;;
2022/03/07 04:52:57;;;;;;;18.8;12.1;;;;;;;-1.28;65.35742;939.0475;;;;
2022/03/07 04:55:26;;;;;;;18.1;11.8;;;;;;;-0.97;64.74805;938.9199;;;;
2022/03/07 04:57:55;;;;;;;18.4;12.3;;;;;;;-0.75;64.28223;939.0098;;;;
2022/03/07 05:00:22;;;;;;;17.4;12.4;;;;;;;-0.67;64.89648;938.9839;;;;
2022/03/07 05:02:53;;;;;;;20.4;12.6;;;;;;;-0.56;62.9873;938.9528;;;;
2022/03/07 05:05:26;;;;;;;17.8;12.5;;;;;;;-0.61;63.05859;938.9891;;;;
2022/03/07 05:07:51;;;;;;;16.2;11.7;;;;;;;-0.64;63.53125;938.9343;;;;
2022/03/07 05:10:22;;;;;;;17.1;11.8;;;;;;;-0.46;62.55664;938.9534;;;;
2022/03/07 05:12:47;;;;;;;17.7;11.1;;;;;;;-0.4;62.6123;938.9302;;;;
2022/03/07 05:15:20;;;;;;;17.4;12.2;;;;;;;-0.53;63.38184;938.845;;;;
2022/03/07 05:17:51;;;;;;;17.6;12;;;;;;;-0.49;63.6543;938.9118;;;;
2022/03/07 05:20:23;;;;;;;15.7;11.7;;;;;;;-0.47;63.6123;938.7683;;;;
2022/03/07 05:22:48;;;;;;;17.4;12.4;;;;;;;-0.51;63.40723;938.8563;;;;
2022/03/07 05:25:22;;;;;;;17.3;12;;;;;;;-0.46;63.04785;938.9364;;;;
2022/03/07 05:27:50;;;;;;;19.1;12.7;;;;;;;-0.5;63.50879;938.9266;;;;
2022/03/07 05:30:18;;;;;;;16.2;11.8;;;;;;;-0.35;62.875;938.9178;;;;
2022/03/07 05:32:45;;;;;;;18.5;12;;;;;;;-0.26;62.4541;938.9506;;;;
2022/03/07 05:35:23;;;;;;;17.1;12.3;;;;;;;-0.31;62.98047;938.9239;;;;
2022/03/07 05:37:50;;;;;;;16.4;12.1;;;;;;;-0.39;63.9707;938.8535;;;;
2022/03/07 05:40:19;;;;;;;17.8;12.5;;;;;;;-0.48;63.84668;938.8359;;;;
2022/03/07 05:42:51;;;;;;;16.4;11.9;;;;;;;-0.54;64.21484;938.7634;;;;
2022/03/07 05:45:22;;;;;;;19.3;12.8;;;;;;;-0.61;64.7041;938.8639;;;;
2022/03/07 05:47:56;;;;;;;18.8;12.8;;;;;;;-0.74;65.89746;938.8808;;;;
2022/03/07 05:50:26;;;;;;;19.5;12.6;;;;;;;-0.56;64.67773;938.8628;;;;
2022/03/07 05:52:56;;;;;;;17.9;12.7;;;;;;;-0.39;63.23535;938.7834;;;;
2022/03/07 05:55:21;;;;;;;18.5;11.9;;;;;;;-0.33;62.93359;938.7977;;;;
2022/03/07 05:58:29;;;;;;;17.3;12.3;;;;;;;-0.32;63.23535;938.8474;;;;
2022/03/07 06:00:56;;;;;;;17.8;12.8;;;;;;;-0.4;63.35645;938.7184;;;;
2022/03/07 06:03:21;;;;;;;18.8;13.2;;;;;;;-0.34;63.40918;938.592;;;;
2022/03/07 06:05:52;;;;;;;16.8;12.4;;;;;;;-0.24;63.38086;938.5613;;;;
2022/03/07 06:08:22;;;;;;;17.6;13;;;;;;;-0.19;64.13379;938.5655;;;;
2022/03/07 06:10:54;;;;;;;18.5;13;;;;;;;-0.33;64.23633;938.6969;;;;
2022/03/07 06:13:25;;;;;;;17.3;12.4;;;;;;;-0.28;64.16406;938.7844;;;;
2022/03/07 06:16:02;;;;;;;16.5;12.3;;;;;;;-0.25;64.32422;938.7615;;;;
2022/03/07 06:18:28;;;;;;;18.4;12.3;;;;;;;-0.24;64.85059;938.8997;;;;
2022/03/07 06:20:59;;;;;;;20.6;12.6;;;;;;;-0.22;64.54102;938.9219;;;;
2022/03/07 06:23:29;;;;;;;20.1;12.9;;;;;;;-0.27;64.47754;938.8794;;;;
2022/03/07 06:25:54;;;;;;;21.1;13.6;;;;;;;-0.22;64.95313;938.8882;;;;
2022/03/07 06:28:24;;;;;;;27.8;14.7;;;;;;;-0.19;65.69238;938.8956;;;;
2022/03/07 06:30:49;;;;;;;20.1;13.6;;;;;;;-0.11;65.25977;938.8979;;;;
2022/03/07 06:33:14;;;;;;;22.4;13.7;;;;;;;-0.12;64.71289;938.841;;;;
2022/03/07 06:35:39;;;;;;;20.6;13.4;;;;;;;-0.09;64.7959;938.8484;;;;
2022/03/07 06:38:08;;;;;;;19.9;12.6;;;;;;;0.08;64.54199;938.8748;;;;
2022/03/07 06:40:33;;;;;;;21.3;13.2;;;;;;;0.07;64.48535;938.875;;;;
2022/03/07 06:43:01;;;;;;;21.6;12.6;;;;;;;0.16;63.85254;938.9523;;;;
2022/03/07 06:45:32;;;;;;;19;12.5;;;;;;;0.25;62.65137;939.0408;;;;
2022/03/07 06:50:47;;;;;;;18.2;12.7;;;;;;;0.23;62.25879;939.0751;;;;
2022/03/07 06:53:12;;;;;;;17.4;12.3;;;;;;;0.25;61.83789;939.0966;;;;
2022/03/07 06:55:42;;;;;;;19.2;12.5;;;;;;;0.02;63.18457;939.1887;;;;
2022/03/07 06:58:10;;;;;;;29.4;13.2;;;;;;;-0.15;64.68652;939.2325;;;;
2022/03/07 07:00:35;;;;;;;18.8;13.6;;;;;;;-0.19;65.16895;939.3031;;;;
2022/03/07 07:03:05;;;;;;;18.5;13.5;;;;;;;-0.09;64.66211;939.3624;;;;
2022/03/07 07:05:29;;;;;;;19.3;13.1;;;;;;;-0.04;63.14355;939.3477;;;;
2022/03/07 07:07:58;;;;;;;19.6;13.6;;;;;;;0.15;62.98242;939.3308;;;;
2022/03/07 07:10:24;;;;;;;20.4;14;;;;;;;0.13;63.20215;939.3815;;;;
2022/03/07 07:12:54;;;;;;;17.8;13.2;;;;;;;0.21;62.40137;939.3022;;;;
2022/03/07 07:15:23;;;;;;;17.1;12.7;;;;;;;0.32;61.17969;939.3995;;;;
2022/03/07 07:17:50;;;;;;;16.2;13;;;;;;;0.44;60.40625;939.3982;;;;
2022/03/07 07:20:24;;;;;;;20.5;13.5;;;;;;;0.45;60.48438;939.3984;;;;
2022/03/07 07:22:54;;;;;;;20.9;13.6;;;;;;;0.54;59.33887;939.3395;;;;
2022/03/07 07:25:25;;;;;;;17.1;12.3;;;;;;;0.66;59.02051;939.3347;;;;
2022/03/07 07:27:55;;;;;;;18.9;13.1;;;;;;;0.8;59.93164;939.2989;;;;
2022/03/07 07:30:22;;;;;;;20.3;13.1;;;;;;;1.07;58.51855;939.3654;;;;
2022/03/07 07:32:45;;;;;;;18.1;12.7;;;;;;;1.16;58.07324;939.3909;;;;
2022/03/07 07:35:20;;;;;;;17.7;13.3;;;;;;;1.22;57.79102;939.4056;;;;
2022/03/07 07:37:54;;;;;;;17.4;12.7;;;;;;;1.05;58.05859;939.4953;;;;
2022/03/07 07:40:19;;;;;;;19.4;12.7;;;;;;;0.96;58.57031;939.437;;;;
2022/03/07 07:42:49;;;;;;;18.9;13.4;;;;;;;0.91;59.05469;939.5662;;;;
2022/03/07 07:45:14;;;;;;;19.3;12.6;;;;;;;0.87;59.72852;939.6033;;;;
2022/03/07 07:47:43;;;;;;;17.7;13.1;;;;;;;0.86;59.82813;939.6687;;;;
2022/03/07 07:50:14;;;;;;;17.5;13.1;;;;;;;1.04;59.24023;939.5734;;;;
2022/03/07 07:52:39;;;;;;;20;13.3;;;;;;;0.98;60.11426;939.6025;;;;
2022/03/07 07:55:08;;;;;;;16.5;13;;;;;;;0.97;60.625;939.6401;;;;
2022/03/07 07:57:34;;;;;;;18.1;12.8;;;;;;;0.96;60.80273;939.6546;;;;
2022/03/07 08:00:00;;;;;;;15.9;12.4;;;;;;;1.2;59.80957;939.5525;;;;
2022/03/07 08:02:25;;;;;;;16.8;12.3;;;;;;;1.42;58.25391;939.4455;;;;
2022/03/07 08:04:56;;;;;;;18.7;13;;;;;;;1.81;57.44629;939.4461;;;;
2022/03/07 08:07:21;;;;;;;18.4;13.2;;;;;;;1.94;55.34863;939.4336;;;;
2022/03/07 08:09:49;;;;;;;17.3;12.2;;;;;;;1.95;56.07813;939.3008;;;;
2022/03/07 08:12:17;;;;;;;18.6;12.8;;;;;;;2.09;55.9043;939.5204;;;;
2022/03/07 08:14:39;;;;;;;16.9;12.5;;;;;;;2.46;55.14844;939.4441;;;;
2022/03/07 08:17:11;;;;;;;17.9;12.1;;;;;;;2.28;55.52734;939.4575;;;;
2022/03/07 08:19:35;;;;;;;17.3;12.1;;;;;;;2.75;53.51465;939.4113;;;;
2022/03/07 08:22:00;;;;;;;15.7;12;;;;;;;3.3;52.21484;939.3644;;;;
2022/03/07 08:24:28;;;;;;;16.4;11.1;;;;;;;5.14;48.45996;939.3764;;;;
2022/03/07 08:26:53;;;;;;;14.6;11;;;;;;;6.52;44.02441;939.4398;;;;
2022/03/07 08:29:23;;;;;;;14.5;10.5;;;;;;;7.36;41.98047;939.377;;;;
2022/03/07 08:31:55;;;;;;;13.9;10.8;;;;;;;8.18;40.5498;939.4689;;;;
2022/03/07 08:34:26;;;;;;;14.9;11.1;;;;;;;8.51;38.99023;939.4389;;;;
2022/03/07 08:36:55;;;;;;;13.3;10.6;;;;;;;10.05;35.74316;939.3848;;;;
2022/03/07 08:39:20;;;;;;;13.6;10.9;;;;;;;11.18;33.40039;939.308;;;;
2022/03/07 08:41:48;;;;;;;13.8;11;;;;;;;12.01;32.57129;939.3806;;;;
2022/03/07 08:44:13;;;;;;;12.9;10.5;;;;;;;11.22;34.03223;939.4767;;;;
2022/03/07 08:46:41;;;;;;;13;11.2;;;;;;;11.92;32.15137;939.3666;;;;
2022/03/07 08:49:06;;;;;;;16.4;10.6;;;;;;;12.89;31.52344;939.4656;;;;
2022/03/07 08:51:34;;;;;;;13;10.2;;;;;;;13.01;30.86523;939.4194;;;;
2022/03/07 08:53:59;;;;;;;12;10.4;;;;;;;13.65;29.47363;939.3829;;;;
2022/03/07 08:56:26;;;;;;;12.6;10.8;;;;;;;14.6;28.05176;939.4189;;;;
2022/03/07 08:58:52;;;;;;;12.7;10.9;;;;;;;14.86;27.69922;939.4078;;;;
2022/03/07 09:01:30;;;;;;;12.1;10.7;;;;;;;14.34;27.67773;939.4594;;;;
2022/03/07 09:03:59;;;;;;;11.6;10.4;;;;;;;15.08;26.77832;939.4526;;;;
2022/03/07 09:06:24;;;;;;;13.9;10.7;;;;;;;14.56;28.625;939.4968;;;;
2022/03/07 09:08:51;;;;;;;13.9;11.3;;;;;;;13.68;29.0957;939.5076;;;;
2022/03/07 09:11:16;;;;;;;13.1;10.9;;;;;;;13.35;30.52246;939.5439;;;;
2022/03/07 09:13:43;;;;;;;12.8;11.1;;;;;;;13.56;28.75488;939.4451;;;;
2022/03/07 09:16:16;;;;;;;12;10.8;;;;;;;13.02;30.13184;939.5533;;;;
2022/03/07 09:18:42;;;;;;;14.2;11.4;;;;;;;11.95;31.55859;939.5073;;;;
2022/03/07 09:21:14;;;;;;;15.5;11.6;;;;;;;11.69;32.43164;939.4771;;;;
2022/03/07 09:23:42;;;;;;;17.5;11.8;;;;;;;11.49;32.73828;939.4944;;;;
2022/03/07 09:26:14;;;;;;;14.8;11.4;;;;;;;12.16;31.16113;939.5071;;;;
2022/03/07 09:28:39;;;;;;;13.6;11.5;;;;;;;12.33;31.12695;939.5106;;;;
2022/03/07 09:31:13;;;;;;;15.2;11;;;;;;;11.68;32.24805;939.4642;;;;
2022/03/07 09:33:44;;;;;;;14.4;11.8;;;;;;;11.01;33.30762;939.4846;;;;
2022/03/07 09:36:17;;;;;;;14.3;11.8;;;;;;;11.02;33.68555;939.4914;;;;
2022/03/07 09:38:44;;;;;;;15.1;11.7;;;;;;;10.99;33.55762;939.5481;;;;
2022/03/07 09:41:10;;;;;;;13.8;12.1;;;;;;;11.55;32.36523;939.3617;;;;
2022/03/07 09:43:37;;;;;;;15;11.9;;;;;;;11.6;32.17383;939.5215;;;;
2022/03/07 09:46:02;;;;;;;13.5;11.9;;;;;;;11.51;32.44141;939.5377;;;;
2022/03/07 09:48:30;;;;;;;14.2;11.7;;;;;;;11.73;32.29785;939.5092;;;;
2022/03/07 09:50:54;;;;;;;14.9;12.5;;;;;;;11.23;32.84473;939.4808;;;;
2022/03/07 09:53:21;;;;;;;15.1;12.2;;;;;;;11.39;32.37598;939.6041;;;;
2022/03/07 09:55:47;;;;;;;15.3;11.8;;;;;;;10.14;34.79199;939.5833;;;;
2022/03/07 09:58:15;;;;;;;14.2;11.7;;;;;;;10.82;33.64648;939.6397;;;;
2022/03/07 10:00:41;;;;;;;15.7;12.6;;;;;;;10.38;34.52539;939.6155;;;;
2022/03/07 10:03:09;;;;;;;16;13;;;;;;;10.36;34.53516;939.5834;;;;
2022/03/07 10:05:32;;;;;;;15.8;13.1;;;;;;;9.39;36.35938;939.5817;;;;
2022/03/07 10:07:57;;;;;;;14.5;12.8;;;;;;;9.51;35.77734;939.4868;;;;
2022/03/07 10:10:26;;;;;;;17.5;14.2;;;;;;;8.95;37.40332;939.6031;;;;
2022/03/07 10:12:51;;;;;;;16.9;14;;;;;;;9.47;36.71973;939.6603;;;;
2022/03/07 10:15:17;;;;;;;16.1;13.8;;;;;;;9.97;35.87207;939.6689;;;;
2022/03/07 10:17:42;;;;;;;16.9;13.3;;;;;;;10.1;35.50684;939.6058;;;;
2022/03/07 10:20:19;;;;;;;16.9;13.3;;;;;;;9.29;36.41895;939.6523;;;;
2022/03/07 10:22:41;;;;;;;15.1;13.3;;;;;;;9.73;37.04883;939.7162;;;;
2022/03/07 10:25:06;;;;;;;16.3;13.5;;;;;;;10.3;34.89648;939.7347;;;;
2022/03/07 10:27:32;;;;;;;16.1;13.9;;;;;;;9.89;35.5127;939.7211;;;;
2022/03/07 10:29:57;;;;;;;18.6;14.7;;;;;;;10.04;35.57031;939.772;;;;
2022/03/07 10:32:28;;;;;;;20.1;14.4;;;;;;;9.51;37.15527;939.6656;;;;
2022/03/07 10:34:53;;;;;;;29.4;14.2;;;;;;;9.08;38.18848;939.647;;;;
2022/03/07 10:37:18;;;;;;;21.6;14.4;;;;;;;8.51;38.66016;939.7144;;;;
2022/03/07 10:39:45;;;;;;;16.6;14.2;;;;;;;8.85;37.97461;939.7062;;;;
2022/03/07 10:42:10;;;;;;;17.4;14.3;;;;;;;9.04;37.62695;939.6661;;;;
2022/03/07 10:44:37;;;;;;;18.3;14;;;;;;;9.28;37.36328;939.591;;;;
2022/03/07 10:47:00;;;;;;;16.7;14.1;;;;;;;9.25;38.29395;939.677;;;;
2022/03/07 10:49:26;;;;;;;18.7;14.9;;;;;;;8.71;38.74707;939.6326;;;;
2022/03/07 10:51:51;;;;;;;16.7;14.1;;;;;;;8.56;39.29102;939.6558;;;;
2022/03/07 10:54:18;;;;;;;17.1;14.3;;;;;;;7.94;40.43652;939.7326;;;;
2022/03/07 10:56:43;;;;;;;19;15;;;;;;;8.4;39.55957;939.6897;;;;
2022/03/07 10:59:11;;;;;;;19.8;14.7;;;;;;;8.78;38.88965;939.7;;;;
2022/03/07 11:01:36;;;;;;;18.9;14.8;;;;;;;9.2;37.82324;939.68;;;;
2022/03/07 11:04:01;;;;;;;18.4;14.5;;;;;;;9.03;38.07031;939.7113;;;;
2022/03/07 11:06:27;;;;;;;17.6;14.5;;;;;;;9.58;36.75098;939.7343;;;;
2022/03/07 11:08:52;;;;;;;18.5;14.6;;;;;;;9.81;36.23535;939.6501;;;;
2022/03/07 11:11:20;;;;;;;18.4;14.5;;;;;;;9.51;36.56348;939.5806;;;;
2022/03/07 11:13:45;;;;;;;18.4;15.2;;;;;;;9.49;38.14453;939.6542;;;;
2022/03/07 11:16:15;;;;;;;17.4;14.2;;;;;;;10.48;35.22949;939.6003;;;;
2022/03/07 11:18:45;;;;;;;16.9;14.2;;;;;;;10.48;35.13867;939.644;;;;
2022/03/07 11:21:17;;;;;;;16.8;13.9;;;;;;;11.92;33.125;939.5837;;;;
2022/03/07 11:23:47;;;;;;;16.7;14.2;;;;;;;12.22;32.31055;939.4861;;;;
2022/03/07 11:26:12;;;;;;;16.8;14;;;;;;;12.18;32.0791;939.5232;;;;
2022/03/07 11:28:40;;;;;;;16.4;14;;;;;;;11.17;33.31934;939.4785;;;;
2022/03/07 11:31:05;;;;;;;17.1;14.4;;;;;;;10.78;34.61426;939.4612;;;;
2022/03/07 11:33:37;;;;;;;17.3;14.2;;;;;;;11.35;33.53906;939.4508;;;;
2022/03/07 11:35:57;;;;;;;17.9;14.3;;;;;;;10.77;34.28125;939.4309;;;;
2022/03/07 11:38:28;;;;;;;17.5;14.5;;;;;;;10;36.65039;939.3322;;;;
2022/03/07 11:40:51;;;;;;;16.2;14;;;;;;;10;36.53613;939.4307;;;;
2022/03/07 11:43:18;;;;;;;16.9;14.2;;;;;;;10.75;34.68164;939.3711;;;;
2022/03/07 11:45:43;;;;;;;17.7;14.1;;;;;;;10.75;34.12109;939.3209;;;;
2022/03/07 11:48:08;;;;;;;21.1;14.5;;;;;;;10.24;35.2793;939.4363;;;;
2022/03/07 11:50:38;;;;;;;16.1;13.8;;;;;;;12.25;32.15234;939.3569;;;;
2022/03/07 11:53:04;;;;;;;16.7;13.4;;;;;;;12.82;31.3457;939.3095;;;;
2022/03/07 11:55:28;;;;;;;15.1;12.8;;;;;;;13.3;30.24316;939.2648;;;;
2022/03/07 11:57:53;;;;;;;17.5;13.4;;;;;;;11.88;31.89648;939.1845;;;;
2022/03/07 12:00:18;;;;;;;16.7;14.8;;;;;;;11.02;33.86816;939.1353;;;;
2022/03/07 12:02:43;;;;;;;15.9;13.8;;;;;;;10.75;34.08789;939.1497;;;;
2022/03/07 12:05:12;;;;;;;18.9;14.1;;;;;;;10.71;34.03711;939.1133;;;;
2022/03/07 12:07:37;;;;;;;17;14.5;;;;;;;10.31;34.16602;939.1514;;;;
2022/03/07 12:10:02;;;;;;;19;14.9;;;;;;;11.67;31.96094;939.0653;;;;
2022/03/07 12:12:28;;;;;;;18.1;14.9;;;;;;;11.98;32.15625;938.9911;;;;
2022/03/07 12:14:53;;;;;;;18;14.7;;;;;;;11.71;32.43359;939.0025;;;;
2022/03/07 12:17:26;;;;;;;16.6;13.5;;;;;;;13.01;30.26953;938.9625;;;;
2022/03/07 12:19:49;;;;;;;17;13.6;;;;;;;13.94;28.9873;938.9753;;;;
2022/03/07 12:22:17;;;;;;;18.1;13.7;;;;;;;14.78;27.55566;938.9045;;;;
2022/03/07 12:24:42;;;;;;;18.2;14.6;;;;;;;13.76;29.12402;938.9091;;;;
2022/03/07 12:27:07;;;;;;;18.5;14.6;;;;;;;12.69;30.32715;938.8311;;;;
2022/03/07 12:29:33;;;;;;;16.9;14.2;;;;;;;11.7;32.25;938.8876;;;;
2022/03/07 12:31:58;;;;;;;23.3;14.8;;;;;;;12.55;31.33789;938.9303;;;;
2022/03/07 12:34:25;;;;;;;18.6;14.3;;;;;;;12.4;30.2832;938.8546;;;;
2022/03/07 12:36:50;;;;;;;16;14.1;;;;;;;11.94;31.69531;938.9143;;;;
2022/03/07 12:39:18;;;;;;;17.1;14.2;;;;;;;11.99;31.5498;938.7828;;;;
2022/03/07 12:41:43;;;;;;;16.8;14;;;;;;;12.16;30.89746;938.803;;;;
2022/03/07 12:44:10;;;;;;;17.3;14.4;;;;;;;12.62;30.03516;938.8182;;;;
2022/03/07 12:46:36;;;;;;;16.8;13.6;;;;;;;12.36;30.39551;938.6675;;;;
2022/03/07 12:49:05;;;;;;;17.8;14.4;;;;;;;12.2;30.99219;938.7864;;;;
2022/03/07 12:51:30;;;;;;;16.8;13.7;;;;;;;12.26;30.34277;938.7614;;;;
2022/03/07 12:53:55;;;;;;;18.6;13.9;;;;;;;12.78;29.07031;938.7234;;;;
2022/03/07 12:56:20;;;;;;;18.3;13.9;;;;;;;12.42;30.45703;938.6633;;;;
2022/03/07 12:58:46;;;;;;;18.2;14.4;;;;;;;11.91;30.79883;938.7107;;;;
2022/03/07 13:01:12;;;;;;;16.1;13.6;;;;;;;10.57;32.82813;938.7486;;;;
2022/03/07 13:03:37;;;;;;;16.7;14.1;;;;;;;11.18;32.00586;938.711;;;;
2022/03/07 13:06:07;;;;;;;17;13.8;;;;;;;10.35;33.33691;938.656;;;;
2022/03/07 13:08:32;;;;;;;17.6;14.3;;;;;;;11.35;32.14355;938.6663;;;;
2022/03/07 13:10:57;;;;;;;19.1;14.4;;;;;;;10.57;33.09082;938.6944;;;;
2022/03/07 13:13:25;;;;;;;18.4;14.3;;;;;;;11.01;32.00391;938.5675;;;;
2022/03/07 13:16:07;;;;;;;18;14.7;;;;;;;10.36;33.25684;938.6561;;;;
2022/03/07 13:18:33;;;;;;;18.8;14.4;;;;;;;10.14;33.55957;938.6635;;;;
2022/03/07 13:21:02;;;;;;;18.6;14.9;;;;;;;10.26;33.26074;938.6869;;;;
2022/03/07 13:23:28;;;;;;;17.4;13.8;;;;;;;10.91;32.7627;938.577;;;;
2022/03/07 13:25:53;;;;;;;17.1;13.8;;;;;;;11.72;30.60254;938.6685;;;;
2022/03/07 13:28:24;;;;;;;18.1;14;;;;;;;12.17;30.02637;938.5301;;;;
2022/03/07 13:30:52;;;;;;;17.2;14.1;;;;;;;11.41;31.49609;938.5655;;;;
2022/03/07 13:33:23;;;;;;;18;14.8;;;;;;;11.03;32.54199;938.5927;;;;
2022/03/07 13:35:47;;;;;;;16.9;14.5;;;;;;;11.47;31.22559;938.6627;;;;
2022/03/07 13:38:16;;;;;;;19.8;14.5;;;;;;;11.56;30.87695;938.6297;;;;
2022/03/07 13:40:41;;;;;;;18.4;14.7;;;;;;;11.25;31.55371;938.4656;;;;
2022/03/07 13:43:09;;;;;;;16.4;14;;;;;;;12.56;29.93945;938.4919;;;;
2022/03/07 13:45:34;;;;;;;18.1;14.2;;;;;;;13.19;29.14453;938.4568;;;;
2022/03/07 13:47:59;;;;;;;17.3;14.2;;;;;;;13.08;29.15918;938.351;;;;
2022/03/07 13:50:27;;;;;;;16.7;13.5;;;;;;;13.83;27.05859;938.3842;;;;
2022/03/07 13:52:53;;;;;;;21.7;14.8;;;;;;;13.82;27.80566;938.4338;;;;
2022/03/07 13:55:22;;;;;;;17.2;14.3;;;;;;;13.59;28.04395;938.4313;;;;
2022/03/07 13:57:48;;;;;;;17.2;13.8;;;;;;;13.22;28.52637;938.3859;;;;
2022/03/07 14:00:13;;;;;;;16.6;13.9;;;;;;;13.31;28.3125;938.3938;;;;
2022/03/07 14:02:40;;;;;;;16.3;13.3;;;;;;;14.26;27.00391;938.4792;;;;
2022/03/07 14:05:06;;;;;;;17.3;14.1;;;;;;;13.68;27.63574;938.4042;;;;
2022/03/07 14:07:31;;;;;;;17.8;13.9;;;;;;;14.2;26.70117;938.4383;;;;
2022/03/07 14:09:56;;;;;;;17;14.3;;;;;;;15.07;26.00488;938.4422;;;;
2022/03/07 14:12:25;;;;;;;27.1;14.4;;;;;;;14.73;26.01953;938.5089;;;;
2022/03/07 14:14:50;;;;;;;16;13.6;;;;;;;13.43;27.25195;938.4844;;;;
2022/03/07 14:17:19;;;;;;;16.8;14.2;;;;;;;12.58;28.3916;938.4216;;;;
2022/03/07 14:19:47;;;;;;;16.9;13.7;;;;;;;11.53;30.04004;938.4964;;;;
2022/03/07 14:22:18;;;;;;;31;15.9;;;;;;;11.69;29.94824;938.4713;;;;
2022/03/07 14:24:37;;;;;;;18.6;14.9;;;;;;;11.93;29.46094;938.4562;;;;
2022/03/07 14:27:04;;;;;;;18.8;14.1;;;;;;;11.8;29.40625;938.4992;;;;